Sydney Airport Weather Forecast (YSSY – SYD)

METAR

TTF METAR YSSY 230130Z 07017KT 9999 FEW040 SCT050 25/14 Q1016 RMK RF00.0/000.0 NOSIG

TAF

TAF YSSY 222229Z 2300/2406 04015KT 9999 FEW040 FM231000 01008KT 9999 FEW025 FM240100 04018KT CAVOK RMK T 23 24 24 21 Q 1017 1015 1014 1015

QNH 

1016

Temperature & Dew Point

25° DP14